sensor_id;sensor_type;location;lat;lon;timestamp;P1;durP1;ratioP1;P2;durP2;ratioP2
3131;SDS011;62090;52.330;9.104;2023-01-19T00:01:30;14.00;;;8.90;;
3131;SDS011;62090;52.330;9.104;2023-01-19T00:04:00;10.33;;;8.03;;
3131;SDS011;62090;52.330;9.104;2023-01-19T00:06:30;16.30;;;9.27;;
3131;SDS011;62090;52.330;9.104;2023-01-19T00:09:00;13.17;;;9.47;;
3131;SDS011;62090;52.330;9.104;2023-01-19T00:11:32;11.90;;;8.80;;
3131;SDS011;62090;52.330;9.104;2023-01-19T00:14:02;10.60;;;8.77;;
3131;SDS011;62090;52.330;9.104;2023-01-19T00:16:32;13.83;;;9.00;;
3131;SDS011;62090;52.330;9.104;2023-01-19T00:19:02;14.70;;;8.83;;
3131;SDS011;62090;52.330;9.104;2023-01-19T00:21:32;13.70;;;9.20;;
3131;SDS011;62090;52.330;9.104;2023-01-19T00:24:02;13.57;;;9.20;;
3131;SDS011;62090;52.330;9.104;2023-01-19T00:26:35;11.00;;;7.73;;
3131;SDS011;62090;52.330;9.104;2023-01-19T00:29:05;16.03;;;9.63;;
3131;SDS011;62090;52.330;9.104;2023-01-19T00:31:36;11.67;;;8.33;;
3131;SDS011;62090;52.330;9.104;2023-01-19T00:34:06;12.87;;;8.13;;
3131;SDS011;62090;52.330;9.104;2023-01-19T00:36:36;14.83;;;8.97;;
3131;SDS011;62090;52.330;9.104;2023-01-19T00:39:06;11.53;;;8.27;;
3131;SDS011;62090;52.330;9.104;2023-01-19T00:41:39;14.93;;;8.70;;
3131;SDS011;62090;52.330;9.104;2023-01-19T00:44:21;11.30;;;8.00;;
3131;SDS011;62090;52.330;9.104;2023-01-19T00:46:50;12.70;;;8.63;;
3131;SDS011;62090;52.330;9.104;2023-01-19T00:49:20;13.93;;;9.30;;
3131;SDS011;62090;52.330;9.104;2023-01-19T00:51:50;11.40;;;7.70;;
3131;SDS011;62090;52.330;9.104;2023-01-19T00:54:19;11.00;;;8.57;;
3131;SDS011;62090;52.330;9.104;2023-01-19T00:56:53;17.20;;;8.93;;
3131;SDS011;62090;52.330;9.104;2023-01-19T00:59:22;13.87;;;8.30;;
3131;SDS011;62090;52.330;9.104;2023-01-19T01:01:53;12.10;;;7.70;;
3131;SDS011;62090;52.330;9.104;2023-01-19T01:04:24;14.63;;;9.23;;
3131;SDS011;62090;52.330;9.104;2023-01-19T01:06:53;14.23;;;8.23;;
3131;SDS011;62090;52.330;9.104;2023-01-19T01:09:23;13.03;;;8.77;;
3131;SDS011;62090;52.330;9.104;2023-01-19T01:11:55;12.30;;;8.13;;
3131;SDS011;62090;52.330;9.104;2023-01-19T01:14:25;16.30;;;8.67;;
3131;SDS011;62090;52.330;9.104;2023-01-19T01:16:55;15.20;;;9.20;;
3131;SDS011;62090;52.330;9.104;2023-01-19T01:19:24;15.40;;;8.70;;
3131;SDS011;62090;52.330;9.104;2023-01-19T01:21:54;14.23;;;8.60;;
3131;SDS011;62090;52.330;9.104;2023-01-19T01:24:24;19.77;;;8.83;;
3131;SDS011;62090;52.330;9.104;2023-01-19T01:26:56;13.20;;;9.53;;
3131;SDS011;62090;52.330;9.104;2023-01-19T01:29:26;11.97;;;8.80;;
3131;SDS011;62090;52.330;9.104;2023-01-19T01:31:55;11.23;;;8.40;;
3131;SDS011;62090;52.330;9.104;2023-01-19T01:34:25;12.07;;;9.50;;
3131;SDS011;62090;52.330;9.104;2023-01-19T01:36:55;17.23;;;10.23;;
3131;SDS011;62090;52.330;9.104;2023-01-19T01:39:25;14.90;;;10.00;;
3131;SDS011;62090;52.330;9.104;2023-01-19T01:41:57;14.40;;;8.73;;
3131;SDS011;62090;52.330;9.104;2023-01-19T01:47:20;18.07;;;9.20;;
3131;SDS011;62090;52.330;9.104;2023-01-19T01:49:56;13.60;;;9.70;;
3131;SDS011;62090;52.330;9.104;2023-01-19T01:52:32;15.00;;;9.17;;
3131;SDS011;62090;52.330;9.104;2023-01-19T01:55:05;14.60;;;9.93;;
3131;SDS011;62090;52.330;9.104;2023-01-19T01:57:41;13.20;;;8.70;;
3131;SDS011;62090;52.330;9.104;2023-01-19T02:00:14;11.53;;;9.87;;
3131;SDS011;62090;52.330;9.104;2023-01-19T02:02:45;11.43;;;8.93;;
3131;SDS011;62090;52.330;9.104;2023-01-19T02:05:20;14.20;;;9.60;;
3131;SDS011;62090;52.330;9.104;2023-01-19T02:07:54;12.80;;;9.00;;
3131;SDS011;62090;52.330;9.104;2023-01-19T02:10:40;13.10;;;9.83;;
3131;SDS011;62090;52.330;9.104;2023-01-19T02:13:25;10.13;;;8.47;;
3131;SDS011;62090;52.330;9.104;2023-01-19T02:15:57;13.83;;;9.00;;
3131;SDS011;62090;52.330;9.104;2023-01-19T02:18:29;15.17;;;10.37;;
3131;SDS011;62090;52.330;9.104;2023-01-19T02:21:02;15.30;;;10.80;;
3131;SDS011;62090;52.330;9.104;2023-01-19T02:23:41;13.77;;;10.47;;
3131;SDS011;62090;52.330;9.104;2023-01-19T02:26:14;16.70;;;10.90;;
3131;SDS011;62090;52.330;9.104;2023-01-19T02:28:48;17.43;;;10.00;;
3131;SDS011;62090;52.330;9.104;2023-01-19T02:31:23;14.77;;;9.27;;
3131;SDS011;62090;52.330;9.104;2023-01-19T02:33:53;13.70;;;10.13;;
3131;SDS011;62090;52.330;9.104;2023-01-19T02:36:23;15.00;;;11.13;;
3131;SDS011;62090;52.330;9.104;2023-01-19T02:38:58;13.23;;;9.90;;
3131;SDS011;62090;52.330;9.104;2023-01-19T02:41:31;13.83;;;9.90;;
3131;SDS011;62090;52.330;9.104;2023-01-19T02:44:06;13.77;;;10.17;;
3131;SDS011;62090;52.330;9.104;2023-01-19T02:46:38;14.27;;;10.57;;
3131;SDS011;62090;52.330;9.104;2023-01-19T02:49:07;17.10;;;10.70;;
3131;SDS011;62090;52.330;9.104;2023-01-19T02:51:37;14.97;;;10.80;;
3131;SDS011;62090;52.330;9.104;2023-01-19T02:54:23;14.13;;;10.93;;
3131;SDS011;62090;52.330;9.104;2023-01-19T03:00:13;14.83;;;10.70;;
3131;SDS011;62090;52.330;9.104;2023-01-19T03:02:53;19.00;;;11.07;;
3131;SDS011;62090;52.330;9.104;2023-01-19T03:05:33;18.67;;;10.30;;
3131;SDS011;62090;52.330;9.104;2023-01-19T03:08:15;12.40;;;9.97;;
3131;SDS011;62090;52.330;9.104;2023-01-19T03:10:54;17.07;;;11.13;;
3131;SDS011;62090;52.330;9.104;2023-01-19T03:13:32;19.63;;;10.53;;
3131;SDS011;62090;52.330;9.104;2023-01-19T03:16:11;18.10;;;10.83;;
3131;SDS011;62090;52.330;9.104;2023-01-19T03:18:49;16.93;;;11.00;;
3131;SDS011;62090;52.330;9.104;2023-01-19T03:21:22;13.73;;;11.27;;
3131;SDS011;62090;52.330;9.104;2023-01-19T03:23:56;17.40;;;11.00;;
3131;SDS011;62090;52.330;9.104;2023-01-19T03:26:33;16.63;;;11.47;;
3131;SDS011;62090;52.330;9.104;2023-01-19T03:29:07;16.73;;;10.57;;
3131;SDS011;62090;52.330;9.104;2023-01-19T03:31:38;15.30;;;10.30;;
3131;SDS011;62090;52.330;9.104;2023-01-19T03:34:12;13.03;;;10.77;;
3131;SDS011;62090;52.330;9.104;2023-01-19T03:36:48;16.30;;;11.30;;
3131;SDS011;62090;52.330;9.104;2023-01-19T03:39:21;16.37;;;11.07;;
3131;SDS011;62090;52.330;9.104;2023-01-19T03:41:56;17.33;;;10.63;;
3131;SDS011;62090;52.330;9.104;2023-01-19T03:44:29;16.70;;;11.90;;
3131;SDS011;62090;52.330;9.104;2023-01-19T03:47:02;15.10;;;11.33;;
3131;SDS011;62090;52.330;9.104;2023-01-19T03:49:34;17.13;;;10.97;;
3131;SDS011;62090;52.330;9.104;2023-01-19T03:52:05;16.80;;;10.70;;
3131;SDS011;62090;52.330;9.104;2023-01-19T03:54:35;16.47;;;11.87;;
3131;SDS011;62090;52.330;9.104;2023-01-19T03:57:07;18.20;;;11.80;;
3131;SDS011;62090;52.330;9.104;2023-01-19T03:59:38;17.03;;;11.40;;
3131;SDS011;62090;52.330;9.104;2023-01-19T04:02:08;16.23;;;10.97;;
3131;SDS011;62090;52.330;9.104;2023-01-19T04:04:38;17.93;;;11.17;;
3131;SDS011;62090;52.330;9.104;2023-01-19T04:07:08;14.00;;;10.17;;
3131;SDS011;62090;52.330;9.104;2023-01-19T04:09:38;13.43;;;10.57;;
3131;SDS011;62090;52.330;9.104;2023-01-19T04:12:11;16.10;;;10.30;;
3131;SDS011;62090;52.330;9.104;2023-01-19T04:14:41;19.37;;;10.60;;
3131;SDS011;62090;52.330;9.104;2023-01-19T04:17:10;15.00;;;10.70;;
3131;SDS011;62090;52.330;9.104;2023-01-19T04:19:41;11.33;;;10.00;;
3131;SDS011;62090;52.330;9.104;2023-01-19T04:22:11;14.23;;;9.53;;
3131;SDS011;62090;52.330;9.104;2023-01-19T04:24:41;14.40;;;10.50;;
3131;SDS011;62090;52.330;9.104;2023-01-19T04:27:13;17.43;;;11.23;;
3131;SDS011;62090;52.330;9.104;2023-01-19T04:29:43;18.83;;;11.57;;
3131;SDS011;62090;52.330;9.104;2023-01-19T04:32:13;12.23;;;9.20;;
3131;SDS011;62090;52.330;9.104;2023-01-19T04:34:42;15.47;;;10.43;;
3131;SDS011;62090;52.330;9.104;2023-01-19T04:37:12;14.27;;;10.33;;
3131;SDS011;62090;52.330;9.104;2023-01-19T04:39:42;21.47;;;11.00;;
3131;SDS011;62090;52.330;9.104;2023-01-19T04:42:14;13.37;;;10.00;;
3131;SDS011;62090;52.330;9.104;2023-01-19T04:44:45;15.47;;;11.13;;
3131;SDS011;62090;52.330;9.104;2023-01-19T04:47:14;16.07;;;9.67;;
3131;SDS011;62090;52.330;9.104;2023-01-19T04:49:44;14.23;;;9.70;;
3131;SDS011;62090;52.330;9.104;2023-01-19T04:52:14;14.20;;;10.13;;
3131;SDS011;62090;52.330;9.104;2023-01-19T04:54:44;15.03;;;10.97;;
3131;SDS011;62090;52.330;9.104;2023-01-19T04:57:16;15.63;;;10.03;;
3131;SDS011;62090;52.330;9.104;2023-01-19T04:59:46;14.07;;;9.80;;
3131;SDS011;62090;52.330;9.104;2023-01-19T05:02:15;13.80;;;9.47;;
3131;SDS011;62090;52.330;9.104;2023-01-19T05:04:45;12.17;;;9.07;;
3131;SDS011;62090;52.330;9.104;2023-01-19T05:07:15;16.97;;;10.40;;
3131;SDS011;62090;52.330;9.104;2023-01-19T05:09:45;13.03;;;9.07;;
3131;SDS011;62090;52.330;9.104;2023-01-19T05:12:18;11.40;;;8.93;;
3131;SDS011;62090;52.330;9.104;2023-01-19T05:14:47;13.70;;;9.60;;
3131;SDS011;62090;52.330;9.104;2023-01-19T05:17:17;19.10;;;9.73;;
3131;SDS011;62090;52.330;9.104;2023-01-19T05:19:47;14.67;;;9.80;;
3131;SDS011;62090;52.330;9.104;2023-01-19T05:22:16;14.57;;;9.53;;
3131;SDS011;62090;52.330;9.104;2023-01-19T05:24:46;19.47;;;10.50;;
3131;SDS011;62090;52.330;9.104;2023-01-19T05:27:19;12.17;;;9.80;;
3131;SDS011;62090;52.330;9.104;2023-01-19T05:29:48;13.60;;;9.20;;
3131;SDS011;62090;52.330;9.104;2023-01-19T05:32:18;20.90;;;10.00;;
3131;SDS011;62090;52.330;9.104;2023-01-19T05:34:48;14.57;;;8.90;;
3131;SDS011;62090;52.330;9.104;2023-01-19T05:37:17;12.37;;;8.93;;
3131;SDS011;62090;52.330;9.104;2023-01-19T05:39:47;13.80;;;8.13;;
3131;SDS011;62090;52.330;9.104;2023-01-19T05:42:19;12.30;;;9.23;;
3131;SDS011;62090;52.330;9.104;2023-01-19T05:44:49;13.83;;;9.60;;
3131;SDS011;62090;52.330;9.104;2023-01-19T05:47:19;19.63;;;9.63;;
3131;SDS011;62090;52.330;9.104;2023-01-19T05:49:48;11.20;;;8.57;;
3131;SDS011;62090;52.330;9.104;2023-01-19T05:52:18;15.30;;;8.93;;
3131;SDS011;62090;52.330;9.104;2023-01-19T05:54:48;15.57;;;8.80;;
3131;SDS011;62090;52.330;9.104;2023-01-19T05:57:20;11.47;;;8.23;;
3131;SDS011;62090;52.330;9.104;2023-01-19T05:59:50;11.60;;;8.20;;
3131;SDS011;62090;52.330;9.104;2023-01-19T06:02:20;13.10;;;8.50;;
3131;SDS011;62090;52.330;9.104;2023-01-19T06:04:54;15.17;;;8.97;;
3131;SDS011;62090;52.330;9.104;2023-01-19T06:07:24;16.07;;;9.13;;
3131;SDS011;62090;52.330;9.104;2023-01-19T06:09:54;12.50;;;7.80;;
3131;SDS011;62090;52.330;9.104;2023-01-19T06:12:27;15.90;;;8.10;;
3131;SDS011;62090;52.330;9.104;2023-01-19T06:14:58;15.10;;;8.33;;
3131;SDS011;62090;52.330;9.104;2023-01-19T06:17:27;12.97;;;7.77;;
3131;SDS011;62090;52.330;9.104;2023-01-19T06:19:57;11.53;;;7.93;;
3131;SDS011;62090;52.330;9.104;2023-01-19T06:22:27;10.80;;;7.83;;
3131;SDS011;62090;52.330;9.104;2023-01-19T06:24:56;12.60;;;8.13;;
3131;SDS011;62090;52.330;9.104;2023-01-19T06:27:29;12.80;;;7.87;;
3131;SDS011;62090;52.330;9.104;2023-01-19T06:29:58;14.87;;;8.43;;
3131;SDS011;62090;52.330;9.104;2023-01-19T06:32:28;13.70;;;8.83;;
3131;SDS011;62090;52.330;9.104;2023-01-19T06:34:58;16.73;;;8.10;;
3131;SDS011;62090;52.330;9.104;2023-01-19T06:37:27;13.60;;;8.00;;
3131;SDS011;62090;52.330;9.104;2023-01-19T06:39:57;12.13;;;8.03;;
3131;SDS011;62090;52.330;9.104;2023-01-19T06:42:29;11.97;;;7.90;;
3131;SDS011;62090;52.330;9.104;2023-01-19T06:44:59;11.17;;;7.63;;
3131;SDS011;62090;52.330;9.104;2023-01-19T06:47:29;11.73;;;8.13;;
3131;SDS011;62090;52.330;9.104;2023-01-19T06:49:59;11.27;;;7.83;;
3131;SDS011;62090;52.330;9.104;2023-01-19T06:52:30;11.30;;;7.10;;
3131;SDS011;62090;52.330;9.104;2023-01-19T06:55:00;9.80;;;7.17;;
3131;SDS011;62090;52.330;9.104;2023-01-19T06:57:32;11.67;;;7.00;;
3131;SDS011;62090;52.330;9.104;2023-01-19T07:00:02;11.80;;;7.67;;
3131;SDS011;62090;52.330;9.104;2023-01-19T07:02:34;12.23;;;7.17;;
3131;SDS011;62090;52.330;9.104;2023-01-19T07:05:04;9.43;;;7.10;;
3131;SDS011;62090;52.330;9.104;2023-01-19T07:07:35;12.10;;;7.10;;
3131;SDS011;62090;52.330;9.104;2023-01-19T07:10:05;9.77;;;7.10;;
3131;SDS011;62090;52.330;9.104;2023-01-19T07:12:39;12.30;;;7.07;;
3131;SDS011;62090;52.330;9.104;2023-01-19T07:15:10;11.60;;;7.30;;
3131;SDS011;62090;52.330;9.104;2023-01-19T07:17:40;7.20;;;6.50;;
3131;SDS011;62090;52.330;9.104;2023-01-19T07:20:11;7.70;;;5.73;;
3131;SDS011;62090;52.330;9.104;2023-01-19T07:22:42;9.87;;;6.03;;
3131;SDS011;62090;52.330;9.104;2023-01-19T07:25:13;9.33;;;6.63;;
3131;SDS011;62090;52.330;9.104;2023-01-19T07:27:46;7.73;;;5.90;;
3131;SDS011;62090;52.330;9.104;2023-01-19T07:30:15;7.00;;;5.23;;
3131;SDS011;62090;52.330;9.104;2023-01-19T07:32:45;10.83;;;5.90;;
3131;SDS011;62090;52.330;9.104;2023-01-19T07:35:15;8.70;;;6.23;;
3131;SDS011;62090;52.330;9.104;2023-01-19T07:37:47;7.57;;;5.50;;
3131;SDS011;62090;52.330;9.104;2023-01-19T07:40:17;7.80;;;6.30;;
3131;SDS011;62090;52.330;9.104;2023-01-19T07:42:52;10.70;;;6.40;;
3131;SDS011;62090;52.330;9.104;2023-01-19T07:45:21;7.33;;;5.50;;
3131;SDS011;62090;52.330;9.104;2023-01-19T07:47:53;5.77;;;5.17;;
3131;SDS011;62090;52.330;9.104;2023-01-19T07:50:23;8.27;;;5.43;;
3131;SDS011;62090;52.330;9.104;2023-01-19T07:52:55;9.23;;;5.27;;
3131;SDS011;62090;52.330;9.104;2023-01-19T07:55:25;8.47;;;6.30;;
3131;SDS011;62090;52.330;9.104;2023-01-19T07:57:57;7.00;;;5.40;;
3131;SDS011;62090;52.330;9.104;2023-01-19T08:00:29;9.10;;;5.73;;
3131;SDS011;62090;52.330;9.104;2023-01-19T08:02:59;9.97;;;5.63;;
3131;SDS011;62090;52.330;9.104;2023-01-19T08:05:30;7.10;;;5.20;;
3131;SDS011;62090;52.330;9.104;2023-01-19T08:08:01;6.43;;;4.67;;
3131;SDS011;62090;52.330;9.104;2023-01-19T08:10:31;5.13;;;4.30;;
3131;SDS011;62090;52.330;9.104;2023-01-19T08:13:03;7.73;;;4.83;;
3131;SDS011;62090;52.330;9.104;2023-01-19T08:15:33;5.20;;;4.20;;
3131;SDS011;62090;52.330;9.104;2023-01-19T08:18:03;5.80;;;4.33;;
3131;SDS011;62090;52.330;9.104;2023-01-19T08:20:35;9.70;;;3.97;;
3131;SDS011;62090;52.330;9.104;2023-01-19T08:23:05;6.43;;;4.40;;
3131;SDS011;62090;52.330;9.104;2023-01-19T08:25:35;8.13;;;4.37;;
3131;SDS011;62090;52.330;9.104;2023-01-19T08:28:10;4.83;;;3.30;;
3131;SDS011;62090;52.330;9.104;2023-01-19T08:30:41;3.50;;;3.20;;
3131;SDS011;62090;52.330;9.104;2023-01-19T08:33:12;4.67;;;3.13;;
3131;SDS011;62090;52.330;9.104;2023-01-19T08:35:45;3.43;;;3.00;;
3131;SDS011;62090;52.330;9.104;2023-01-19T08:38:16;3.67;;;3.37;;
3131;SDS011;62090;52.330;9.104;2023-01-19T08:40:47;5.20;;;3.20;;
3131;SDS011;62090;52.330;9.104;2023-01-19T08:43:19;5.13;;;2.87;;
3131;SDS011;62090;52.330;9.104;2023-01-19T08:45:49;3.30;;;2.70;;
3131;SDS011;62090;52.330;9.104;2023-01-19T08:48:22;3.50;;;3.20;;
3131;SDS011;62090;52.330;9.104;2023-01-19T08:50:52;2.87;;;2.67;;
3131;SDS011;62090;52.330;9.104;2023-01-19T08:53:22;2.90;;;2.70;;
3131;SDS011;62090;52.330;9.104;2023-01-19T08:55:53;2.67;;;2.37;;
3131;SDS011;62090;52.330;9.104;2023-01-19T08:58:28;2.77;;;2.57;;
3131;SDS011;62090;52.330;9.104;2023-01-19T09:00:58;3.20;;;2.77;;
3131;SDS011;62090;52.330;9.104;2023-01-19T09:03:29;3.17;;;2.70;;
3131;SDS011;62090;52.330;9.104;2023-01-19T09:05:59;3.13;;;2.83;;
3131;SDS011;62090;52.330;9.104;2023-01-19T09:08:29;5.07;;;2.30;;
3131;SDS011;62090;52.330;9.104;2023-01-19T09:10:59;3.33;;;2.47;;
3131;SDS011;62090;52.330;9.104;2023-01-19T09:13:31;7.07;;;2.03;;
3131;SDS011;62090;52.330;9.104;2023-01-19T09:16:01;2.30;;;2.10;;
3131;SDS011;62090;52.330;9.104;2023-01-19T09:18:33;2.63;;;2.43;;
3131;SDS011;62090;52.330;9.104;2023-01-19T09:21:04;4.37;;;3.70;;
3131;SDS011;62090;52.330;9.104;2023-01-19T09:23:34;4.17;;;3.77;;
3131;SDS011;62090;52.330;9.104;2023-01-19T09:26:04;3.40;;;3.10;;
3131;SDS011;62090;52.330;9.104;2023-01-19T09:28:37;3.63;;;3.33;;
3131;SDS011;62090;52.330;9.104;2023-01-19T09:31:07;4.83;;;4.00;;
3131;SDS011;62090;52.330;9.104;2023-01-19T09:33:37;3.83;;;3.43;;
3131;SDS011;62090;52.330;9.104;2023-01-19T09:36:06;4.13;;;3.73;;
3131;SDS011;62090;52.330;9.104;2023-01-19T09:38:36;4.30;;;3.90;;
3131;SDS011;62090;52.330;9.104;2023-01-19T09:41:08;4.17;;;3.77;;
3131;SDS011;62090;52.330;9.104;2023-01-19T09:43:48;4.20;;;3.87;;
3131;SDS011;62090;52.330;9.104;2023-01-19T09:46:23;5.10;;;4.60;;
3131;SDS011;62090;52.330;9.104;2023-01-19T09:48:58;6.00;;;5.40;;
3131;SDS011;62090;52.330;9.104;2023-01-19T09:51:32;5.53;;;5.03;;
3131;SDS011;62090;52.330;9.104;2023-01-19T09:54:06;5.97;;;5.37;;
3131;SDS011;62090;52.330;9.104;2023-01-19T09:56:41;5.80;;;5.30;;
3131;SDS011;62090;52.330;9.104;2023-01-19T09:59:21;6.27;;;5.67;;
3131;SDS011;62090;52.330;9.104;2023-01-19T10:01:58;6.00;;;5.40;;
3131;SDS011;62090;52.330;9.104;2023-01-19T10:04:35;6.50;;;5.90;;
3131;SDS011;62090;52.330;9.104;2023-01-19T10:07:09;6.97;;;5.30;;
3131;SDS011;62090;52.330;9.104;2023-01-19T10:12:38;6.27;;;5.67;;
3131;SDS011;62090;52.330;9.104;2023-01-19T10:15:21;9.20;;;5.70;;
3131;SDS011;62090;52.330;9.104;2023-01-19T10:20:47;6.73;;;6.13;;
3131;SDS011;62090;52.330;9.104;2023-01-19T10:23:31;9.73;;;8.23;;
3131;SDS011;62090;52.330;9.104;2023-01-19T10:26:07;8.37;;;7.27;;
3131;SDS011;62090;52.330;9.104;2023-01-19T10:28:40;8.47;;;7.57;;
3131;SDS011;62090;52.330;9.104;2023-01-19T10:31:14;9.70;;;7.73;;
3131;SDS011;62090;52.330;9.104;2023-01-19T10:33:46;8.83;;;8.00;;
3131;SDS011;62090;52.330;9.104;2023-01-19T10:36:18;8.80;;;8.00;;
3131;SDS011;62090;52.330;9.104;2023-01-19T10:38:50;9.00;;;8.10;;
3131;SDS011;62090;52.330;9.104;2023-01-19T10:41:20;7.67;;;6.77;;
3131;SDS011;62090;52.330;9.104;2023-01-19T10:43:59;9.30;;;8.40;;
3131;SDS011;62090;52.330;9.104;2023-01-19T10:46:35;9.33;;;8.43;;
3131;SDS011;62090;52.330;9.104;2023-01-19T10:49:20;10.10;;;8.27;;
3131;SDS011;62090;52.330;9.104;2023-01-19T10:51:53;10.50;;;7.97;;
3131;SDS011;62090;52.330;9.104;2023-01-19T10:54:24;9.77;;;7.90;;
3131;SDS011;62090;52.330;9.104;2023-01-19T10:56:56;15.13;;;10.70;;
3131;SDS011;62090;52.330;9.104;2023-01-19T10:59:29;16.03;;;10.20;;
3131;SDS011;62090;52.330;9.104;2023-01-19T11:02:15;16.20;;;11.50;;
3131;SDS011;62090;52.330;9.104;2023-01-19T11:04:47;17.77;;;10.50;;
3131;SDS011;62090;52.330;9.104;2023-01-19T11:07:19;20.83;;;12.77;;
3131;SDS011;62090;52.330;9.104;2023-01-19T11:09:59;13.00;;;9.97;;
3131;SDS011;62090;52.330;9.104;2023-01-19T11:12:41;11.50;;;8.20;;
3131;SDS011;62090;52.330;9.104;2023-01-19T11:15:13;13.97;;;9.83;;
3131;SDS011;62090;52.330;9.104;2023-01-19T11:17:47;10.03;;;8.07;;
3131;SDS011;62090;52.330;9.104;2023-01-19T11:20:20;13.30;;;10.23;;
3131;SDS011;62090;52.330;9.104;2023-01-19T11:25:48;20.70;;;12.90;;
3131;SDS011;62090;52.330;9.104;2023-01-19T11:28:20;19.83;;;12.07;;
3131;SDS011;62090;52.330;9.104;2023-01-19T11:30:56;153.73;;;19.10;;
3131;SDS011;62090;52.330;9.104;2023-01-19T11:33:34;18.87;;;12.57;;
3131;SDS011;62090;52.330;9.104;2023-01-19T11:36:06;17.20;;;11.10;;
3131;SDS011;62090;52.330;9.104;2023-01-19T11:38:43;13.33;;;10.73;;
3131;SDS011;62090;52.330;9.104;2023-01-19T11:41:17;19.30;;;8.57;;
3131;SDS011;62090;52.330;9.104;2023-01-19T11:43:49;12.73;;;7.97;;
3131;SDS011;62090;52.330;9.104;2023-01-19T11:46:23;8.97;;;7.90;;
3131;SDS011;62090;52.330;9.104;2023-01-19T11:48:58;12.53;;;7.67;;
3131;SDS011;62090;52.330;9.104;2023-01-19T11:51:33;11.00;;;7.53;;
3131;SDS011;62090;52.330;9.104;2023-01-19T11:54:08;12.57;;;6.43;;
3131;SDS011;62090;52.330;9.104;2023-01-19T11:56:49;13.10;;;7.03;;
3131;SDS011;62090;52.330;9.104;2023-01-19T11:59:22;8.97;;;6.40;;
3131;SDS011;62090;52.330;9.104;2023-01-19T12:01:53;9.43;;;7.30;;
3131;SDS011;62090;52.330;9.104;2023-01-19T12:04:29;12.40;;;7.13;;
3131;SDS011;62090;52.330;9.104;2023-01-19T12:07:02;12.80;;;7.83;;
3131;SDS011;62090;52.330;9.104;2023-01-19T12:09:37;9.50;;;6.83;;
3131;SDS011;62090;52.330;9.104;2023-01-19T12:12:11;14.57;;;7.13;;
3131;SDS011;62090;52.330;9.104;2023-01-19T12:14:46;14.67;;;8.17;;
3131;SDS011;62090;52.330;9.104;2023-01-19T12:17:23;14.80;;;8.33;;
3131;SDS011;62090;52.330;9.104;2023-01-19T12:20:03;11.80;;;8.30;;
3131;SDS011;62090;52.330;9.104;2023-01-19T12:22:41;16.93;;;9.10;;
3131;SDS011;62090;52.330;9.104;2023-01-19T12:25:18;14.70;;;8.63;;
3131;SDS011;62090;52.330;9.104;2023-01-19T12:27:50;15.13;;;8.33;;
3131;SDS011;62090;52.330;9.104;2023-01-19T12:30:22;12.90;;;7.60;;
3131;SDS011;62090;52.330;9.104;2023-01-19T12:35:58;15.10;;;8.00;;
3131;SDS011;62090;52.330;9.104;2023-01-19T12:38:33;19.00;;;8.30;;
3131;SDS011;62090;52.330;9.104;2023-01-19T12:41:16;21.90;;;8.57;;
3131;SDS011;62090;52.330;9.104;2023-01-19T12:43:48;13.00;;;7.23;;
3131;SDS011;62090;52.330;9.104;2023-01-19T12:46:33;27.73;;;7.77;;
3131;SDS011;62090;52.330;9.104;2023-01-19T12:49:04;20.17;;;8.30;;
3131;SDS011;62090;52.330;9.104;2023-01-19T12:51:41;17.03;;;8.50;;
3131;SDS011;62090;52.330;9.104;2023-01-19T12:54:17;18.17;;;8.27;;
3131;SDS011;62090;52.330;9.104;2023-01-19T12:56:55;20.03;;;7.17;;
3131;SDS011;62090;52.330;9.104;2023-01-19T12:59:34;16.77;;;7.77;;
3131;SDS011;62090;52.330;9.104;2023-01-19T13:05:13;18.73;;;7.80;;
3131;SDS011;62090;52.330;9.104;2023-01-19T13:08:19;18.93;;;8.97;;
3131;SDS011;62090;52.330;9.104;2023-01-19T13:17:04;14.43;;;6.67;;
3131;SDS011;62090;52.330;9.104;2023-01-19T13:19:52;15.60;;;6.30;;
3131;SDS011;62090;52.330;9.104;2023-01-19T13:25:33;17.27;;;6.90;;
3131;SDS011;62090;52.330;9.104;2023-01-19T13:28:06;18.40;;;7.07;;
3131;SDS011;62090;52.330;9.104;2023-01-19T13:30:38;22.60;;;6.77;;
3131;SDS011;62090;52.330;9.104;2023-01-19T13:33:21;26.10;;;5.80;;
3131;SDS011;62090;52.330;9.104;2023-01-19T13:35:53;21.53;;;5.67;;
3131;SDS011;62090;52.330;9.104;2023-01-19T13:38:25;23.50;;;6.10;;
3131;SDS011;62090;52.330;9.104;2023-01-19T13:41:00;25.80;;;6.23;;
3131;SDS011;62090;52.330;9.104;2023-01-19T13:43:33;17.70;;;7.03;;
3131;SDS011;62090;52.330;9.104;2023-01-19T13:46:08;27.40;;;6.53;;
3131;SDS011;62090;52.330;9.104;2023-01-19T13:48:39;19.95;;;6.45;;
3131;SDS011;62090;52.330;9.104;2023-01-19T13:51:22;19.53;;;6.47;;
3131;SDS011;62090;52.330;9.104;2023-01-19T13:53:52;30.20;;;6.90;;
3131;SDS011;62090;52.330;9.104;2023-01-19T13:56:26;15.13;;;6.07;;
3131;SDS011;62090;52.330;9.104;2023-01-19T13:58:57;28.40;;;5.60;;
3131;SDS011;62090;52.330;9.104;2023-01-19T14:01:39;14.50;;;6.37;;
3131;SDS011;62090;52.330;9.104;2023-01-19T14:04:27;22.63;;;6.20;;
3131;SDS011;62090;52.330;9.104;2023-01-19T14:06:58;20.90;;;5.60;;
3131;SDS011;62090;52.330;9.104;2023-01-19T14:09:30;16.13;;;6.10;;
3131;SDS011;62090;52.330;9.104;2023-01-19T14:12:07;17.57;;;5.07;;
3131;SDS011;62090;52.330;9.104;2023-01-19T14:14:40;15.83;;;5.37;;
3131;SDS011;62090;52.330;9.104;2023-01-19T14:17:20;18.33;;;6.30;;
3131;SDS011;62090;52.330;9.104;2023-01-19T14:19:54;21.67;;;6.70;;
3131;SDS011;62090;52.330;9.104;2023-01-19T14:22:39;19.57;;;5.73;;
3131;SDS011;62090;52.330;9.104;2023-01-19T14:25:20;19.27;;;6.47;;
3131;SDS011;62090;52.330;9.104;2023-01-19T14:31:17;21.63;;;6.90;;
3131;SDS011;62090;52.330;9.104;2023-01-19T14:33:49;19.70;;;6.33;;
3131;SDS011;62090;52.330;9.104;2023-01-19T14:36:25;13.63;;;6.00;;
3131;SDS011;62090;52.330;9.104;2023-01-19T14:38:59;28.23;;;6.47;;
3131;SDS011;62090;52.330;9.104;2023-01-19T14:41:34;21.30;;;6.60;;
3131;SDS011;62090;52.330;9.104;2023-01-19T14:44:10;19.40;;;6.00;;
3131;SDS011;62090;52.330;9.104;2023-01-19T14:46:45;15.07;;;5.60;;
3131;SDS011;62090;52.330;9.104;2023-01-19T14:49:18;14.83;;;5.60;;
3131;SDS011;62090;52.330;9.104;2023-01-19T14:51:50;19.23;;;5.33;;
3131;SDS011;62090;52.330;9.104;2023-01-19T14:54:23;20.60;;;5.50;;
3131;SDS011;62090;52.330;9.104;2023-01-19T14:56:59;16.57;;;5.60;;
3131;SDS011;62090;52.330;9.104;2023-01-19T14:59:31;20.23;;;5.53;;
3131;SDS011;62090;52.330;9.104;2023-01-19T15:02:01;21.87;;;5.83;;
3131;SDS011;62090;52.330;9.104;2023-01-19T15:04:31;17.60;;;5.80;;
3131;SDS011;62090;52.330;9.104;2023-01-19T15:07:01;17.30;;;6.40;;
3131;SDS011;62090;52.330;9.104;2023-01-19T15:09:30;22.47;;;6.63;;
3131;SDS011;62090;52.330;9.104;2023-01-19T15:12:00;15.57;;;6.27;;
3131;SDS011;62090;52.330;9.104;2023-01-19T15:14:33;23.83;;;7.83;;
3131;SDS011;62090;52.330;9.104;2023-01-19T15:17:02;22.30;;;7.03;;
3131;SDS011;62090;52.330;9.104;2023-01-19T15:19:32;19.73;;;7.50;;
3131;SDS011;62090;52.330;9.104;2023-01-19T15:22:07;26.00;;;9.00;;
3131;SDS011;62090;52.330;9.104;2023-01-19T15:24:40;23.93;;;8.40;;
3131;SDS011;62090;52.330;9.104;2023-01-19T15:27:10;20.33;;;7.90;;
3131;SDS011;62090;52.330;9.104;2023-01-19T15:29:42;21.83;;;8.53;;
3131;SDS011;62090;52.330;9.104;2023-01-19T15:32:12;16.77;;;8.53;;
3131;SDS011;62090;52.330;9.104;2023-01-19T15:34:43;20.10;;;7.97;;
3131;SDS011;62090;52.330;9.104;2023-01-19T15:37:12;20.97;;;9.47;;
3131;SDS011;62090;52.330;9.104;2023-01-19T15:39:42;18.87;;;9.57;;
3131;SDS011;62090;52.330;9.104;2023-01-19T15:42:12;22.53;;;9.93;;
3131;SDS011;62090;52.330;9.104;2023-01-19T15:44:45;19.03;;;9.97;;
3131;SDS011;62090;52.330;9.104;2023-01-19T15:47:15;20.67;;;11.07;;
3131;SDS011;62090;52.330;9.104;2023-01-19T15:49:44;26.93;;;11.83;;
3131;SDS011;62090;52.330;9.104;2023-01-19T15:52:14;22.83;;;12.20;;
3131;SDS011;62090;52.330;9.104;2023-01-19T15:54:44;27.40;;;11.97;;